Lower Presto, Idaho
Current Conditions -  °F | °C
As of 8:53 PM on Saturday 24 Jan 2015 (Local Time) from KIDA Reporting Station
Overcast Overcast  
Wind Chill: 21°   Ceiling: 700
Heat Index: 26°   Visibility: 10mi
Dew Point: 23°   Wind: 5mph
Humidity: 88%   Direction: 350°N
Pressure: 30.45"   Gusts: NA
Location:  43.192°N, 111.839°W
Report Text: KIDA 250353Z 35004KT 10SM BKN007 OVC014 M03/M05 A3045 RMK AO2 SLP352 T10331050
Loading
Personal Weather Stations






























Interactive Weather Map New forecast layout! Learn more

10-Day Weather Forecast

Advertisements
Track Severe Weather on mobile